createdAt,value
2017-08-29T00:00:29.519Z,18.55
2017-08-29T00:02:57.131Z,18.57
2017-08-29T00:05:24.749Z,18.55
2017-08-29T00:07:52.350Z,18.50
2017-08-29T00:10:19.936Z,18.40
2017-08-29T00:12:47.565Z,18.31
2017-08-29T00:15:15.192Z,18.31
2017-08-29T00:17:43.212Z,18.32
2017-08-29T00:20:10.835Z,18.31
2017-08-29T00:22:38.436Z,18.33
2017-08-29T00:25:06.053Z,18.36
2017-08-29T00:27:33.631Z,18.33
2017-08-29T00:30:01.249Z,18.25
2017-08-29T00:32:28.914Z,18.16
2017-08-29T00:34:56.548Z,18.07
2017-08-29T00:37:24.137Z,17.99
2017-08-29T00:39:52.134Z,17.94
2017-08-29T00:42:19.747Z,17.89
2017-08-29T00:44:47.344Z,17.86
2017-08-29T00:47:15.314Z,17.83
2017-08-29T00:49:42.917Z,17.80
2017-08-29T00:52:10.532Z,17.78
2017-08-29T00:54:38.134Z,17.76
2017-08-29T00:57:05.790Z,17.73
2017-08-29T00:59:33.580Z,17.72
2017-08-29T01:02:01.311Z,17.74
2017-08-29T01:04:28.900Z,17.71
2017-08-29T01:06:57.192Z,17.70
2017-08-29T01:09:25.279Z,17.69
2017-08-29T01:11:52.894Z,17.64
2017-08-29T01:14:20.592Z,17.62
2017-08-29T01:16:48.209Z,17.61
2017-08-29T01:19:15.984Z,17.63
2017-08-29T01:21:43.574Z,17.64
2017-08-29T01:24:11.362Z,17.63
2017-08-29T01:26:38.942Z,17.58
2017-08-29T01:29:06.699Z,17.52
2017-08-29T01:31:34.300Z,17.47
2017-08-29T01:34:01.914Z,17.43
2017-08-29T01:36:29.536Z,17.46
2017-08-29T01:38:57.122Z,17.50
2017-08-29T01:41:24.782Z,17.54
2017-08-29T01:43:52.403Z,17.52
2017-08-29T01:46:20.098Z,17.49
2017-08-29T01:48:47.697Z,17.46
2017-08-29T01:51:15.313Z,17.43
2017-08-29T01:53:42.921Z,17.42
2017-08-29T01:56:10.540Z,17.41
2017-08-29T01:58:38.137Z,17.39
2017-08-29T02:01:06.128Z,17.34
2017-08-29T02:03:33.717Z,17.30
2017-08-29T02:06:01.328Z,17.28
2017-08-29T02:08:28.950Z,17.34
2017-08-29T02:10:56.555Z,17.39
2017-08-29T02:13:24.267Z,17.40
2017-08-29T02:15:51.944Z,17.38
2017-08-29T02:18:19.561Z,17.40
2017-08-29T02:20:47.179Z,17.43
2017-08-29T02:23:14.796Z,17.47
2017-08-29T02:25:42.407Z,17.51
2017-08-29T02:28:10.395Z,17.53
2017-08-29T02:30:37.970Z,17.51
2017-08-29T02:33:05.583Z,17.45
2017-08-29T02:35:33.223Z,17.37
2017-08-29T02:38:01.840Z,17.30
2017-08-29T02:40:29.583Z,17.24
2017-08-29T02:42:57.181Z,17.22
2017-08-29T02:45:24.803Z,17.24
2017-08-29T02:47:52.409Z,17.24
2017-08-29T02:50:20.320Z,17.18
2017-08-29T02:52:47.940Z,17.13
2017-08-29T02:55:15.523Z,17.11
2017-08-29T02:57:43.135Z,17.08
2017-08-29T03:00:10.713Z,17.06
2017-08-29T03:02:44.227Z,17.10
2017-08-29T03:05:11.845Z,17.12
2017-08-29T03:07:39.515Z,17.12
2017-08-29T03:10:07.148Z,17.15
2017-08-29T03:12:34.728Z,17.16
2017-08-29T03:15:02.340Z,17.13
2017-08-29T03:17:30.019Z,17.09
2017-08-29T03:19:57.623Z,17.06
2017-08-29T03:22:25.242Z,17.05
2017-08-29T03:24:52.855Z,16.99
2017-08-29T03:27:20.486Z,16.98
2017-08-29T03:29:48.090Z,16.98
2017-08-29T03:32:15.743Z,16.99
2017-08-29T03:34:43.352Z,16.99
2017-08-29T03:37:10.958Z,17.04
2017-08-29T03:39:38.572Z,17.08
2017-08-29T03:42:06.167Z,17.10
2017-08-29T03:44:33.792Z,17.10
2017-08-29T03:47:01.419Z,17.05
2017-08-29T03:49:29.013Z,16.99
2017-08-29T03:51:56.620Z,16.94
2017-08-29T03:54:24.208Z,16.89
2017-08-29T03:56:51.835Z,16.83
2017-08-29T03:59:19.430Z,16.76
2017-08-29T04:01:47.066Z,16.71
2017-08-29T04:04:14.674Z,16.68
2017-08-29T04:06:42.343Z,16.66
2017-08-29T04:09:10.005Z,16.63
2017-08-29T04:11:37.605Z,16.62
2017-08-29T04:14:05.254Z,16.63
2017-08-29T04:16:33.023Z,16.64
2017-08-29T04:19:00.677Z,16.64
2017-08-29T04:21:28.258Z,16.66
2017-08-29T04:23:55.882Z,16.69
2017-08-29T04:26:23.480Z,16.71
2017-08-29T04:28:51.587Z,16.73
2017-08-29T04:31:19.170Z,16.75
2017-08-29T04:33:46.780Z,16.76
2017-08-29T04:36:14.409Z,16.76
2017-08-29T04:38:42.024Z,16.72
2017-08-29T04:41:09.657Z,16.68
2017-08-29T04:43:37.258Z,16.66
2017-08-29T04:46:04.865Z,16.66
2017-08-29T04:48:32.488Z,16.68
2017-08-29T04:51:00.117Z,16.72
2017-08-29T04:53:27.827Z,16.78
2017-08-29T04:55:55.437Z,16.82
2017-08-29T04:58:23.077Z,16.86
2017-08-29T05:00:50.702Z,16.92
2017-08-29T05:03:18.322Z,16.90
2017-08-29T05:05:45.900Z,16.89
2017-08-29T05:08:13.527Z,16.89
2017-08-29T05:10:41.127Z,16.93
2017-08-29T05:13:08.757Z,16.97
2017-08-29T05:15:36.357Z,17.04
2017-08-29T05:18:03.951Z,17.07
2017-08-29T05:20:31.547Z,17.12
2017-08-29T05:22:59.150Z,17.16
2017-08-29T05:25:26.838Z,17.23
2017-08-29T05:27:54.449Z,17.27
2017-08-29T05:30:22.108Z,17.32
2017-08-29T05:32:49.709Z,17.38
2017-08-29T05:35:17.309Z,17.43
2017-08-29T05:37:44.913Z,17.41
2017-08-29T05:40:13.078Z,17.40
2017-08-29T05:42:40.713Z,17.39
2017-08-29T05:45:08.332Z,17.40
2017-08-29T05:47:35.941Z,17.40
2017-08-29T05:50:03.565Z,17.42
2017-08-29T05:52:31.191Z,17.47
2017-08-29T05:54:58.811Z,17.54
2017-08-29T05:57:26.503Z,17.59
2017-08-29T05:59:54.120Z,17.63
2017-08-29T06:02:21.764Z,17.69
2017-08-29T06:04:49.447Z,17.75
2017-08-29T06:07:17.064Z,17.77
2017-08-29T06:09:44.685Z,17.82
2017-08-29T06:12:12.292Z,17.86
2017-08-29T06:14:39.936Z,17.83
2017-08-29T06:17:07.533Z,17.89
2017-08-29T06:19:35.148Z,17.94
2017-08-29T06:22:02.845Z,18.00
2017-08-29T06:24:30.457Z,18.09
2017-08-29T06:26:58.099Z,18.14
2017-08-29T06:29:25.702Z,18.18
2017-08-29T06:31:53.340Z,18.22
2017-08-29T06:34:20.986Z,18.25
2017-08-29T06:36:48.717Z,18.33
2017-08-29T06:39:16.327Z,18.40
2017-08-29T06:41:44.223Z,18.45
2017-08-29T06:44:11.847Z,18.50
2017-08-29T06:46:39.604Z,18.57
2017-08-29T06:49:07.247Z,18.65
2017-08-29T06:51:34.846Z,18.69
2017-08-29T06:54:08.546Z,18.75
2017-08-29T06:56:36.133Z,18.78
2017-08-29T06:59:03.769Z,18.87
2017-08-29T07:01:31.378Z,18.95
2017-08-29T07:03:59.011Z,19.00
2017-08-29T07:06:26.617Z,19.05
2017-08-29T07:08:54.237Z,19.08
2017-08-29T07:11:21.861Z,19.05
2017-08-29T07:13:49.536Z,19.12
2017-08-29T07:16:17.165Z,19.22
2017-08-29T07:18:44.793Z,19.31
2017-08-29T07:21:12.413Z,19.33
2017-08-29T07:23:40.171Z,19.41
2017-08-29T07:26:07.821Z,19.45
2017-08-29T07:28:35.449Z,19.56
2017-08-29T07:31:03.337Z,19.69
2017-08-29T07:33:30.962Z,19.80
2017-08-29T07:35:58.563Z,19.88
2017-08-29T07:38:26.265Z,19.96
2017-08-29T07:40:54.030Z,19.96
2017-08-29T07:43:21.888Z,20.02
2017-08-29T07:45:49.493Z,20.10
2017-08-29T07:48:17.106Z,20.22
2017-08-29T07:50:44.749Z,20.30
2017-08-29T07:53:12.386Z,20.36
2017-08-29T07:55:39.978Z,20.41
2017-08-29T07:58:07.944Z,20.45
2017-08-29T08:00:35.562Z,20.53
2017-08-29T08:03:03.186Z,20.62
2017-08-29T08:05:30.966Z,20.77
2017-08-29T08:07:58.612Z,20.88
2017-08-29T08:10:26.250Z,20.88
2017-08-29T08:12:53.907Z,20.88
2017-08-29T08:15:21.513Z,20.92
2017-08-29T08:17:49.339Z,21.01
2017-08-29T08:20:16.961Z,21.11
2017-08-29T08:22:44.583Z,21.19
2017-08-29T08:25:12.527Z,21.22
2017-08-29T08:27:40.122Z,21.25
2017-08-29T08:30:07.793Z,21.29
2017-08-29T08:32:35.441Z,21.37
2017-08-29T08:35:03.081Z,21.46
2017-08-29T08:37:30.752Z,21.47
2017-08-29T08:39:58.343Z,21.51
2017-08-29T08:42:26.010Z,21.59
2017-08-29T08:44:53.808Z,21.64
2017-08-29T08:47:21.432Z,21.66
2017-08-29T08:49:49.139Z,21.72
2017-08-29T08:52:17.295Z,21.82
2017-08-29T08:54:44.907Z,21.91
2017-08-29T08:57:12.723Z,22.07
2017-08-29T08:59:40.402Z,22.19
2017-08-29T09:02:08.018Z,22.24
2017-08-29T09:04:35.665Z,22.26
2017-08-29T09:07:03.280Z,22.31
2017-08-29T09:09:30.911Z,22.29
2017-08-29T09:11:58.529Z,22.39
2017-08-29T09:14:26.439Z,22.51
2017-08-29T09:16:54.036Z,22.59
2017-08-29T09:19:21.654Z,22.69
2017-08-29T09:21:49.271Z,22.82
2017-08-29T09:24:16.913Z,22.89
2017-08-29T09:26:44.629Z,22.92
2017-08-29T09:29:12.225Z,23.00
2017-08-29T09:31:39.862Z,23.05
2017-08-29T09:34:07.476Z,23.06
2017-08-29T09:36:35.136Z,23.11
2017-08-29T09:39:02.735Z,23.15
2017-08-29T09:41:30.359Z,23.18
2017-08-29T09:43:57.982Z,23.20
2017-08-29T09:46:26.010Z,23.30
2017-08-29T09:48:53.615Z,23.32
2017-08-29T09:51:21.225Z,23.46
2017-08-29T09:53:48.916Z,23.48
2017-08-29T09:56:16.540Z,23.52
2017-08-29T09:58:44.184Z,23.57
2017-08-29T10:01:11.814Z,23.63
2017-08-29T10:03:39.612Z,23.74
2017-08-29T10:06:07.274Z,23.90
2017-08-29T10:08:34.930Z,23.89
2017-08-29T10:11:02.562Z,23.95
2017-08-29T10:13:30.189Z,24.06
2017-08-29T10:15:57.799Z,24.15
2017-08-29T10:18:25.437Z,24.16
2017-08-29T10:20:53.302Z,24.11
2017-08-29T10:23:20.933Z,24.09
2017-08-29T10:25:48.547Z,24.23
2017-08-29T10:28:16.144Z,24.27
2017-08-29T10:30:43.772Z,24.37
2017-08-29T10:33:11.985Z,24.43
2017-08-29T10:35:39.687Z,24.53
2017-08-29T10:38:07.295Z,24.42
2017-08-29T10:40:34.950Z,24.55
2017-08-29T10:43:02.588Z,24.64
2017-08-29T10:45:30.198Z,24.63
2017-08-29T10:47:57.840Z,24.62
2017-08-29T10:50:25.428Z,24.66
2017-08-29T10:52:53.027Z,24.68
2017-08-29T10:55:20.736Z,24.75
2017-08-29T10:57:48.541Z,24.86
2017-08-29T11:00:16.254Z,24.94
2017-08-29T11:02:43.895Z,24.99
2017-08-29T11:05:11.472Z,25.08
2017-08-29T11:07:39.063Z,25.07
2017-08-29T11:10:06.708Z,25.07
2017-08-29T11:12:34.309Z,25.18
2017-08-29T11:15:01.920Z,25.20
2017-08-29T11:17:29.515Z,25.24
2017-08-29T11:19:57.146Z,25.30
2017-08-29T11:22:24.757Z,25.30
2017-08-29T11:24:52.427Z,25.32
2017-08-29T11:27:20.098Z,25.47
2017-08-29T11:29:47.686Z,25.53
2017-08-29T11:32:15.334Z,25.51
2017-08-29T11:34:42.924Z,25.50
2017-08-29T11:37:10.528Z,25.51
2017-08-29T11:39:38.106Z,25.60
2017-08-29T11:42:05.722Z,25.61
2017-08-29T11:44:33.312Z,25.70
2017-08-29T11:47:00.926Z,25.83
2017-08-29T11:49:28.499Z,25.73
2017-08-29T11:51:56.142Z,25.71
2017-08-29T11:54:23.776Z,25.73
2017-08-29T11:56:51.374Z,25.71
2017-08-29T11:59:19.657Z,25.79
2017-08-29T12:01:47.246Z,25.80
2017-08-29T12:04:15.014Z,25.81
2017-08-29T12:06:42.636Z,25.80
2017-08-29T12:09:10.256Z,25.80
2017-08-29T12:11:37.868Z,25.95
2017-08-29T12:14:05.499Z,25.96
2017-08-29T12:16:33.100Z,26.00
2017-08-29T12:19:00.701Z,26.07
2017-08-29T12:21:28.308Z,26.12
2017-08-29T12:23:55.912Z,26.13
2017-08-29T12:26:23.552Z,26.21
2017-08-29T12:28:51.161Z,26.13
2017-08-29T12:31:18.806Z,26.07
2017-08-29T12:33:46.405Z,26.10
2017-08-29T12:36:14.045Z,26.15
2017-08-29T12:38:41.687Z,26.11
2017-08-29T12:41:09.389Z,26.02
2017-08-29T12:43:36.982Z,26.08
2017-08-29T12:46:04.576Z,26.13
2017-08-29T12:48:32.210Z,26.26
2017-08-29T12:50:59.823Z,26.40
2017-08-29T12:53:27.464Z,26.46
2017-08-29T12:55:55.115Z,26.42
2017-08-29T12:58:22.703Z,26.37
2017-08-29T13:00:50.300Z,26.49
2017-08-29T13:03:18.289Z,26.62
2017-08-29T13:05:45.883Z,26.62
2017-08-29T13:08:13.496Z,26.65
2017-08-29T13:10:41.109Z,26.69
2017-08-29T13:13:08.669Z,26.68
2017-08-29T13:15:36.313Z,26.82
2017-08-29T13:18:03.953Z,26.93
2017-08-29T13:20:31.572Z,26.95
2017-08-29T13:22:59.179Z,26.99
2017-08-29T13:25:26.836Z,27.02
2017-08-29T13:27:54.426Z,27.12
2017-08-29T13:30:22.373Z,27.27
2017-08-29T13:32:50.007Z,27.29
2017-08-29T13:35:17.637Z,27.33
2017-08-29T13:37:45.529Z,27.43
2017-08-29T13:40:13.136Z,27.52
2017-08-29T13:42:40.786Z,27.49
2017-08-29T13:45:08.413Z,27.62
2017-08-29T13:47:36.038Z,27.66
2017-08-29T13:50:03.636Z,27.70
2017-08-29T13:52:31.626Z,27.70
2017-08-29T13:54:59.217Z,27.82
2017-08-29T13:57:26.884Z,27.84
2017-08-29T13:59:54.509Z,27.88
2017-08-29T14:02:22.113Z,28.01
2017-08-29T14:04:49.744Z,28.04
2017-08-29T14:07:17.347Z,28.07
2017-08-29T14:09:45.005Z,28.22
2017-08-29T14:12:12.611Z,28.44
2017-08-29T14:14:40.410Z,28.40
2017-08-29T14:17:08.024Z,28.56
2017-08-29T14:19:36.886Z,28.72
2017-08-29T14:22:04.516Z,28.62
2017-08-29T14:24:32.150Z,28.53
2017-08-29T14:27:00.083Z,28.78
2017-08-29T14:29:27.682Z,29.16
2017-08-29T14:31:55.296Z,29.53
2017-08-29T14:34:22.964Z,29.79
2017-08-29T14:36:50.565Z,30.06
2017-08-29T14:39:18.289Z,30.24
2017-08-29T14:41:45.895Z,30.57
2017-08-29T14:44:13.872Z,30.62
2017-08-29T14:46:53.426Z,31.01
2017-08-29T14:49:21.376Z,31.18
2017-08-29T14:51:48.971Z,31.13
2017-08-29T14:54:16.698Z,30.59
2017-08-29T14:56:44.295Z,30.94
2017-08-29T14:59:11.870Z,31.07
2017-08-29T15:01:39.921Z,31.20
2017-08-29T15:04:07.504Z,31.03
2017-08-29T15:06:35.095Z,31.25
2017-08-29T15:09:02.718Z,31.04
2017-08-29T15:11:30.301Z,31.12
2017-08-29T15:13:57.977Z,31.13
2017-08-29T15:16:25.686Z,31.55
2017-08-29T15:18:53.307Z,31.68
2017-08-29T15:21:20.907Z,31.31
2017-08-29T15:23:48.591Z,31.13
2017-08-29T15:26:16.214Z,31.25
2017-08-29T15:28:43.805Z,31.19
2017-08-29T15:31:11.418Z,31.33
2017-08-29T15:33:39.004Z,31.16
2017-08-29T15:36:06.645Z,31.16
2017-08-29T15:38:34.237Z,30.92
2017-08-29T15:41:01.863Z,30.87
2017-08-29T15:43:29.446Z,30.60
2017-08-29T15:45:57.409Z,30.26
2017-08-29T15:48:24.997Z,30.11
2017-08-29T15:50:52.586Z,29.93
2017-08-29T15:53:20.189Z,30.15
2017-08-29T15:55:47.788Z,30.23
2017-08-29T15:58:15.384Z,30.34
2017-08-29T16:00:43.103Z,30.07
2017-08-29T16:03:10.720Z,29.68
2017-08-29T16:05:38.347Z,29.34
2017-08-29T16:08:05.961Z,28.97
2017-08-29T16:10:33.561Z,28.68
2017-08-29T16:13:01.232Z,28.49
2017-08-29T16:15:28.829Z,28.26
2017-08-29T16:17:56.710Z,28.05
2017-08-29T16:20:24.308Z,27.88
2017-08-29T16:22:51.906Z,27.71
2017-08-29T16:25:19.613Z,27.42
2017-08-29T16:27:47.261Z,27.22
2017-08-29T16:30:14.886Z,27.15
2017-08-29T16:32:42.485Z,27.09
2017-08-29T16:35:10.243Z,26.94
2017-08-29T16:37:37.857Z,26.83
2017-08-29T16:40:05.781Z,26.79
2017-08-29T16:42:33.475Z,26.74
2017-08-29T16:45:01.084Z,26.70
2017-08-29T16:47:28.711Z,26.60
2017-08-29T16:49:56.450Z,26.44
2017-08-29T16:52:24.107Z,26.32
2017-08-29T16:54:51.725Z,26.22
2017-08-29T16:57:20.491Z,26.17
2017-08-29T16:59:48.089Z,26.07
2017-08-29T17:02:15.728Z,26.00
2017-08-29T17:04:43.345Z,25.91
2017-08-29T17:07:11.059Z,25.87
2017-08-29T17:09:38.640Z,25.74
2017-08-29T17:12:06.384Z,25.67
2017-08-29T17:14:34.009Z,25.58
2017-08-29T17:17:01.951Z,25.50
2017-08-29T17:19:29.573Z,25.44
2017-08-29T17:21:57.183Z,25.37
2017-08-29T17:24:25.044Z,25.29
2017-08-29T17:26:52.648Z,25.21
2017-08-29T17:29:20.263Z,25.12
2017-08-29T17:31:47.846Z,25.04
2017-08-29T17:34:15.628Z,24.95
2017-08-29T17:36:43.230Z,24.87
2017-08-29T17:39:11.202Z,24.79
2017-08-29T17:41:38.836Z,24.68
2017-08-29T17:44:06.434Z,24.55
2017-08-29T17:46:34.073Z,24.43
2017-08-29T17:49:01.685Z,24.36
2017-08-29T17:51:29.313Z,24.31
2017-08-29T17:53:56.954Z,24.23
2017-08-29T17:56:24.674Z,24.16
2017-08-29T17:58:52.288Z,24.09
2017-08-29T18:01:19.915Z,24.00
2017-08-29T18:03:47.551Z,23.93
2017-08-29T18:06:15.457Z,23.84
2017-08-29T18:08:43.059Z,23.76
2017-08-29T18:11:10.685Z,23.68
2017-08-29T18:13:38.306Z,23.61
2017-08-29T18:16:05.898Z,23.54
2017-08-29T18:18:33.510Z,23.52
2017-08-29T18:21:01.194Z,23.49
2017-08-29T18:23:28.804Z,23.42
2017-08-29T18:25:56.524Z,23.32
2017-08-29T18:28:24.787Z,23.23
2017-08-29T18:30:52.378Z,23.12
2017-08-29T18:33:20.158Z,23.04
2017-08-29T18:35:47.794Z,22.96
2017-08-29T18:38:15.678Z,22.93
2017-08-29T18:40:43.285Z,22.88
2017-08-29T18:43:10.912Z,22.85
2017-08-29T18:45:38.542Z,22.80
2017-08-29T18:48:06.199Z,22.74
2017-08-29T18:50:33.799Z,22.68
2017-08-29T18:53:01.396Z,22.63
2017-08-29T18:55:29.045Z,22.62
2017-08-29T18:57:56.655Z,22.59
2017-08-29T19:00:24.280Z,22.53
2017-08-29T19:02:52.063Z,22.48
2017-08-29T19:05:20.046Z,22.37
2017-08-29T19:07:47.662Z,22.29
2017-08-29T19:10:15.348Z,22.19
2017-08-29T19:12:43.043Z,22.13
2017-08-29T19:15:10.634Z,22.06
2017-08-29T19:17:38.288Z,21.96
2017-08-29T19:20:05.965Z,21.89
2017-08-29T19:22:33.571Z,21.82
2017-08-29T19:25:01.181Z,21.75
2017-08-29T19:27:28.846Z,21.70
2017-08-29T19:29:56.451Z,21.65
2017-08-29T19:32:24.642Z,21.60
2017-08-29T19:34:52.275Z,21.59
2017-08-29T19:37:19.912Z,21.54
2017-08-29T19:39:47.522Z,21.52
2017-08-29T19:42:15.198Z,21.48
2017-08-29T19:44:43.017Z,21.47
2017-08-29T19:47:10.638Z,21.43
2017-08-29T19:49:38.289Z,21.39
2017-08-29T19:52:05.946Z,21.33
2017-08-29T19:54:33.646Z,21.29
2017-08-29T19:57:01.235Z,21.26
2017-08-29T19:59:29.135Z,21.24
2017-08-29T20:01:56.835Z,21.21
2017-08-29T20:04:24.506Z,21.14
2017-08-29T20:06:52.218Z,21.02
2017-08-29T20:09:19.921Z,20.98
2017-08-29T20:11:47.532Z,20.95
2017-08-29T20:14:15.104Z,20.90
2017-08-29T20:16:42.725Z,20.90
2017-08-29T20:19:10.498Z,20.84
2017-08-29T20:21:38.135Z,20.77
2017-08-29T20:24:05.895Z,20.69
2017-08-29T20:26:33.519Z,20.61
2017-08-29T20:29:01.200Z,20.55
2017-08-29T20:31:29.098Z,20.52
2017-08-29T20:33:56.838Z,20.51
2017-08-29T20:36:24.449Z,20.48
2017-08-29T20:38:52.083Z,20.47
2017-08-29T20:41:19.694Z,20.44
2017-08-29T20:43:47.326Z,20.40
2017-08-29T20:46:15.112Z,20.33
2017-08-29T20:48:42.728Z,20.25
2017-08-29T20:51:10.431Z,20.20
2017-08-29T20:53:38.064Z,20.17
2017-08-29T20:56:05.645Z,20.14
2017-08-29T20:58:33.606Z,20.10
2017-08-29T21:01:01.232Z,20.06
2017-08-29T21:03:29.012Z,20.03
2017-08-29T21:05:56.630Z,20.04
2017-08-29T21:08:24.220Z,20.00
2017-08-29T21:10:51.877Z,19.95
2017-08-29T21:13:19.550Z,19.91
2017-08-29T21:15:47.180Z,19.88
2017-08-29T21:18:14.814Z,19.82
2017-08-29T21:20:42.436Z,19.78
2017-08-29T21:23:10.054Z,19.76
2017-08-29T21:25:37.754Z,19.71
2017-08-29T21:28:05.341Z,19.65
2017-08-29T21:30:33.328Z,19.59
2017-08-29T21:33:00.925Z,19.55
2017-08-29T21:35:28.528Z,19.52
2017-08-29T21:37:56.550Z,19.48
2017-08-29T21:40:24.153Z,19.42
2017-08-29T21:42:51.773Z,19.34
2017-08-29T21:45:19.387Z,19.25
2017-08-29T21:47:47.012Z,19.21
2017-08-29T21:50:14.617Z,19.21
2017-08-29T21:52:42.215Z,19.24
2017-08-29T21:55:09.822Z,19.25
2017-08-29T21:57:37.950Z,19.24
2017-08-29T22:00:05.702Z,19.23
2017-08-29T22:02:33.309Z,19.21
2017-08-29T22:05:00.996Z,19.17
2017-08-29T22:07:28.584Z,19.08
2017-08-29T22:09:56.200Z,19.01
2017-08-29T22:12:23.840Z,18.92
2017-08-29T22:14:51.429Z,18.86
2017-08-29T22:17:19.139Z,18.80
2017-08-29T22:19:46.751Z,18.75
2017-08-29T22:22:14.323Z,18.68
2017-08-29T22:24:42.227Z,18.65
2017-08-29T22:27:09.829Z,18.66
2017-08-29T22:29:37.425Z,18.64
2017-08-29T22:32:05.126Z,18.61
2017-08-29T22:34:32.725Z,18.58
2017-08-29T22:37:00.460Z,18.58
2017-08-29T22:39:28.041Z,18.59
2017-08-29T22:41:55.660Z,18.56
2017-08-29T22:44:23.264Z,18.53
2017-08-29T22:46:50.888Z,18.49
2017-08-29T22:49:18.481Z,18.46
2017-08-29T22:51:46.078Z,18.43
2017-08-29T22:54:13.658Z,18.38
2017-08-29T22:56:41.274Z,18.35
2017-08-29T22:59:08.829Z,18.31
2017-08-29T23:01:36.816Z,18.28
2017-08-29T23:04:04.389Z,18.22
2017-08-29T23:06:32.007Z,18.20
2017-08-29T23:08:59.624Z,18.15
2017-08-29T23:11:27.226Z,18.04
2017-08-29T23:13:54.850Z,17.95
2017-08-29T23:16:22.448Z,17.90
2017-08-29T23:18:50.010Z,17.85
2017-08-29T23:21:17.617Z,17.81
2017-08-29T23:23:45.299Z,17.82
2017-08-29T23:26:12.875Z,17.84
2017-08-29T23:28:40.485Z,17.86
2017-08-29T23:31:08.066Z,17.80
2017-08-29T23:33:35.676Z,17.79
2017-08-29T23:36:03.286Z,17.75
2017-08-29T23:38:31.565Z,17.73
2017-08-29T23:40:59.235Z,17.70
2017-08-29T23:43:26.819Z,17.70
2017-08-29T23:45:54.434Z,17.70
2017-08-29T23:48:22.130Z,17.72
2017-08-29T23:50:49.741Z,17.72
2017-08-29T23:53:17.320Z,17.70
2017-08-29T23:55:44.963Z,17.70
2017-08-29T23:58:12.556Z,17.71
